sensor_id;sensor_type;location;lat;lon;timestamp;P1;durP1;ratioP1;P2;durP2;ratioP2
15061;SDS011;7630;50.306;8.566;2023-06-22T00:02:08;11.77;;;10.97;;
15061;SDS011;7630;50.306;8.566;2023-06-22T00:06:09;11.33;;;10.53;;
15061;SDS011;7630;50.306;8.566;2023-06-22T00:10:10;12.57;;;11.67;;
15061;SDS011;7630;50.306;8.566;2023-06-22T00:14:11;11.97;;;10.97;;
15061;SDS011;7630;50.306;8.566;2023-06-22T00:18:12;11.63;;;10.83;;
15061;SDS011;7630;50.306;8.566;2023-06-22T00:22:14;11.20;;;10.30;;
15061;SDS011;7630;50.306;8.566;2023-06-22T00:26:15;11.93;;;10.43;;
15061;SDS011;7630;50.306;8.566;2023-06-22T00:30:16;11.33;;;10.33;;
15061;SDS011;7630;50.306;8.566;2023-06-22T00:34:18;10.37;;;9.70;;
15061;SDS011;7630;50.306;8.566;2023-06-22T00:38:19;11.63;;;10.73;;
15061;SDS011;7630;50.306;8.566;2023-06-22T00:42:20;11.93;;;10.83;;
15061;SDS011;7630;50.306;8.566;2023-06-22T00:46:22;9.90;;;9.10;;
15061;SDS011;7630;50.306;8.566;2023-06-22T00:50:31;10.73;;;9.73;;
15061;SDS011;7630;50.306;8.566;2023-06-22T00:54:33;10.03;;;9.30;;
15061;SDS011;7630;50.306;8.566;2023-06-22T00:58:36;11.80;;;10.90;;
15061;SDS011;7630;50.306;8.566;2023-06-22T01:02:37;12.17;;;11.17;;
15061;SDS011;7630;50.306;8.566;2023-06-22T01:06:43;12.27;;;11.27;;
15061;SDS011;7630;50.306;8.566;2023-06-22T01:10:46;12.13;;;11.20;;
15061;SDS011;7630;50.306;8.566;2023-06-22T01:15:08;12.93;;;12.03;;
15061;SDS011;7630;50.306;8.566;2023-06-22T01:27:55;13.30;;;12.20;;
15061;SDS011;7630;50.306;8.566;2023-06-22T01:32:17;14.23;;;12.93;;
15061;SDS011;7630;50.306;8.566;2023-06-22T01:36:19;17.13;;;15.60;;
15061;SDS011;7630;50.306;8.566;2023-06-22T01:40:23;16.60;;;15.20;;
15061;SDS011;7630;50.306;8.566;2023-06-22T01:44:27;18.60;;;16.10;;
15061;SDS011;7630;50.306;8.566;2023-06-22T01:48:29;19.30;;;17.70;;
15061;SDS011;7630;50.306;8.566;2023-06-22T01:52:31;17.47;;;16.27;;
15061;SDS011;7630;50.306;8.566;2023-06-22T01:56:34;17.83;;;16.33;;
15061;SDS011;7630;50.306;8.566;2023-06-22T02:00:42;18.37;;;16.50;;
15061;SDS011;7630;50.306;8.566;2023-06-22T02:04:46;18.63;;;17.13;;
15061;SDS011;7630;50.306;8.566;2023-06-22T02:08:54;21.60;;;19.77;;
15061;SDS011;7630;50.306;8.566;2023-06-22T02:12:57;23.07;;;21.17;;
15061;SDS011;7630;50.306;8.566;2023-06-22T02:16:59;22.87;;;21.13;;
15061;SDS011;7630;50.306;8.566;2023-06-22T02:21:01;25.03;;;22.77;;
15061;SDS011;7630;50.306;8.566;2023-06-22T02:25:02;23.30;;;21.50;;
15061;SDS011;7630;50.306;8.566;2023-06-22T02:29:03;21.40;;;19.70;;
15061;SDS011;7630;50.306;8.566;2023-06-22T02:33:04;21.47;;;19.87;;
15061;SDS011;7630;50.306;8.566;2023-06-22T02:37:06;23.20;;;21.30;;
15061;SDS011;7630;50.306;8.566;2023-06-22T02:41:07;23.73;;;21.83;;
15061;SDS011;7630;50.306;8.566;2023-06-22T02:45:08;26.27;;;24.13;;
15061;SDS011;7630;50.306;8.566;2023-06-22T02:49:10;28.07;;;25.47;;
15061;SDS011;7630;50.306;8.566;2023-06-22T02:53:11;26.07;;;23.93;;
15061;SDS011;7630;50.306;8.566;2023-06-22T02:57:13;27.90;;;25.77;;
15061;SDS011;7630;50.306;8.566;2023-06-22T03:01:15;24.87;;;22.87;;
15061;SDS011;7630;50.306;8.566;2023-06-22T03:05:16;22.80;;;21.00;;
15061;SDS011;7630;50.306;8.566;2023-06-22T03:09:18;22.17;;;20.57;;
15061;SDS011;7630;50.306;8.566;2023-06-22T03:13:20;22.97;;;20.97;;
15061;SDS011;7630;50.306;8.566;2023-06-22T03:17:21;23.13;;;21.33;;
15061;SDS011;7630;50.306;8.566;2023-06-22T03:21:22;22.93;;;21.03;;
15061;SDS011;7630;50.306;8.566;2023-06-22T03:25:24;24.10;;;22.20;;
15061;SDS011;7630;50.306;8.566;2023-06-22T03:29:26;24.67;;;22.67;;
15061;SDS011;7630;50.306;8.566;2023-06-22T03:33:29;27.33;;;25.23;;
15061;SDS011;7630;50.306;8.566;2023-06-22T03:37:30;26.87;;;24.77;;
15061;SDS011;7630;50.306;8.566;2023-06-22T03:41:31;26.10;;;24.07;;
15061;SDS011;7630;50.306;8.566;2023-06-22T03:45:33;30.23;;;27.47;;
15061;SDS011;7630;50.306;8.566;2023-06-22T03:49:34;32.43;;;29.70;;
15061;SDS011;7630;50.306;8.566;2023-06-22T03:53:36;30.57;;;27.73;;
15061;SDS011;7630;50.306;8.566;2023-06-22T03:57:37;31.60;;;29.00;;
15061;SDS011;7630;50.306;8.566;2023-06-22T04:01:38;29.80;;;27.13;;
15061;SDS011;7630;50.306;8.566;2023-06-22T04:05:39;34.73;;;31.73;;
15061;SDS011;7630;50.306;8.566;2023-06-22T04:09:41;32.27;;;29.27;;
15061;SDS011;7630;50.306;8.566;2023-06-22T04:13:42;30.57;;;27.83;;
15061;SDS011;7630;50.306;8.566;2023-06-22T04:17:44;27.80;;;25.50;;
15061;SDS011;7630;50.306;8.566;2023-06-22T04:21:45;27.37;;;25.27;;
15061;SDS011;7630;50.306;8.566;2023-06-22T04:25:48;29.13;;;26.87;;
15061;SDS011;7630;50.306;8.566;2023-06-22T04:29:49;29.27;;;26.87;;
15061;SDS011;7630;50.306;8.566;2023-06-22T04:33:52;29.23;;;26.77;;
15061;SDS011;7630;50.306;8.566;2023-06-22T04:37:55;27.87;;;25.67;;
15061;SDS011;7630;50.306;8.566;2023-06-22T04:41:58;26.60;;;24.50;;
15061;SDS011;7630;50.306;8.566;2023-06-22T04:46:02;23.67;;;21.87;;
15061;SDS011;7630;50.306;8.566;2023-06-22T04:50:04;23.67;;;21.63;;
15061;SDS011;7630;50.306;8.566;2023-06-22T04:54:06;25.13;;;23.07;;
15061;SDS011;7630;50.306;8.566;2023-06-22T04:58:08;21.03;;;19.33;;
15061;SDS011;7630;50.306;8.566;2023-06-22T05:02:10;20.20;;;18.60;;
15061;SDS011;7630;50.306;8.566;2023-06-22T05:06:11;22.40;;;20.60;;
15061;SDS011;7630;50.306;8.566;2023-06-22T05:10:12;22.23;;;20.60;;
15061;SDS011;7630;50.306;8.566;2023-06-22T05:14:13;22.90;;;21.13;;
15061;SDS011;7630;50.306;8.566;2023-06-22T05:18:14;24.03;;;22.23;;
15061;SDS011;7630;50.306;8.566;2023-06-22T05:22:16;20.93;;;19.33;;
15061;SDS011;7630;50.306;8.566;2023-06-22T05:26:18;21.80;;;20.00;;
15061;SDS011;7630;50.306;8.566;2023-06-22T05:30:21;19.73;;;18.23;;
15061;SDS011;7630;50.306;8.566;2023-06-22T05:34:22;18.80;;;17.47;;
15061;SDS011;7630;50.306;8.566;2023-06-22T05:38:23;18.83;;;17.43;;
15061;SDS011;7630;50.306;8.566;2023-06-22T05:42:25;17.27;;;15.87;;
15061;SDS011;7630;50.306;8.566;2023-06-22T05:46:26;17.50;;;15.40;;
15061;SDS011;7630;50.306;8.566;2023-06-22T05:50:27;18.77;;;17.17;;
15061;SDS011;7630;50.306;8.566;2023-06-22T05:54:29;20.77;;;19.17;;
15061;SDS011;7630;50.306;8.566;2023-06-22T05:58:30;21.20;;;19.37;;
15061;SDS011;7630;50.306;8.566;2023-06-22T06:02:32;19.63;;;17.93;;
15061;SDS011;7630;50.306;8.566;2023-06-22T06:06:34;24.27;;;18.20;;
15061;SDS011;7630;50.306;8.566;2023-06-22T06:10:37;16.90;;;15.50;;
15061;SDS011;7630;50.306;8.566;2023-06-22T06:14:39;15.60;;;14.37;;
15061;SDS011;7630;50.306;8.566;2023-06-22T06:18:40;18.10;;;16.43;;
15061;SDS011;7630;50.306;8.566;2023-06-22T06:22:41;17.43;;;16.13;;
15061;SDS011;7630;50.306;8.566;2023-06-22T06:26:43;17.73;;;16.10;;
15061;SDS011;7630;50.306;8.566;2023-06-22T06:30:45;17.83;;;16.43;;
15061;SDS011;7630;50.306;8.566;2023-06-22T06:34:47;19.03;;;17.37;;
15061;SDS011;7630;50.306;8.566;2023-06-22T06:38:49;16.73;;;15.43;;
15061;SDS011;7630;50.306;8.566;2023-06-22T06:42:50;18.67;;;17.07;;
15061;SDS011;7630;50.306;8.566;2023-06-22T06:46:51;19.83;;;18.03;;
15061;SDS011;7630;50.306;8.566;2023-06-22T06:50:52;19.07;;;17.50;;
15061;SDS011;7630;50.306;8.566;2023-06-22T06:54:53;21.27;;;19.27;;
15061;SDS011;7630;50.306;8.566;2023-06-22T06:58:54;21.20;;;19.07;;
15061;SDS011;7630;50.306;8.566;2023-06-22T07:02:56;20.33;;;18.43;;
15061;SDS011;7630;50.306;8.566;2023-06-22T07:06:58;18.07;;;16.70;;
15061;SDS011;7630;50.306;8.566;2023-06-22T07:11:01;19.30;;;17.53;;
15061;SDS011;7630;50.306;8.566;2023-06-22T07:15:03;19.53;;;17.47;;
15061;SDS011;7630;50.306;8.566;2023-06-22T07:19:10;19.90;;;18.40;;
15061;SDS011;7630;50.306;8.566;2023-06-22T07:23:12;19.40;;;17.53;;
15061;SDS011;7630;50.306;8.566;2023-06-22T07:27:15;19.33;;;17.67;;
15061;SDS011;7630;50.306;8.566;2023-06-22T07:31:18;19.50;;;17.60;;
15061;SDS011;7630;50.306;8.566;2023-06-22T07:35:19;18.63;;;17.03;;
15061;SDS011;7630;50.306;8.566;2023-06-22T07:39:22;20.50;;;18.90;;
15061;SDS011;7630;50.306;8.566;2023-06-22T07:43:25;19.20;;;17.63;;
15061;SDS011;7630;50.306;8.566;2023-06-22T07:47:27;19.97;;;17.97;;
15061;SDS011;7630;50.306;8.566;2023-06-22T07:51:29;18.20;;;16.70;;
15061;SDS011;7630;50.306;8.566;2023-06-22T07:55:30;19.20;;;16.53;;
15061;SDS011;7630;50.306;8.566;2023-06-22T07:59:31;18.07;;;16.60;;
15061;SDS011;7630;50.306;8.566;2023-06-22T08:03:33;17.47;;;16.07;;
15061;SDS011;7630;50.306;8.566;2023-06-22T08:07:34;20.73;;;18.60;;
15061;SDS011;7630;50.306;8.566;2023-06-22T08:11:38;21.83;;;16.00;;
15061;SDS011;7630;50.306;8.566;2023-06-22T08:15:39;42.37;;;18.90;;
15061;SDS011;7630;50.306;8.566;2023-06-22T08:19:40;16.73;;;15.27;;
15061;SDS011;7630;50.306;8.566;2023-06-22T08:23:42;14.93;;;13.83;;
15061;SDS011;7630;50.306;8.566;2023-06-22T08:27:46;13.83;;;12.70;;
15061;SDS011;7630;50.306;8.566;2023-06-22T08:31:49;14.27;;;13.17;;
15061;SDS011;7630;50.306;8.566;2023-06-22T08:35:50;15.80;;;14.53;;
15061;SDS011;7630;50.306;8.566;2023-06-22T08:39:51;14.57;;;13.30;;
15061;SDS011;7630;50.306;8.566;2023-06-22T08:43:52;13.97;;;12.97;;
15061;SDS011;7630;50.306;8.566;2023-06-22T08:47:53;13.83;;;12.50;;
15061;SDS011;7630;50.306;8.566;2023-06-22T08:51:55;12.93;;;12.00;;
15061;SDS011;7630;50.306;8.566;2023-06-22T08:55:57;14.23;;;12.90;;
15061;SDS011;7630;50.306;8.566;2023-06-22T08:59:59;12.80;;;11.90;;
15061;SDS011;7630;50.306;8.566;2023-06-22T09:04:02;12.67;;;11.63;;
15061;SDS011;7630;50.306;8.566;2023-06-22T09:08:05;14.37;;;12.93;;
15061;SDS011;7630;50.306;8.566;2023-06-22T09:12:07;13.80;;;12.33;;
15061;SDS011;7630;50.306;8.566;2023-06-22T09:16:08;12.80;;;11.97;;
15061;SDS011;7630;50.306;8.566;2023-06-22T09:20:10;13.87;;;12.80;;
15061;SDS011;7630;50.306;8.566;2023-06-22T09:24:12;12.83;;;11.77;;
15061;SDS011;7630;50.306;8.566;2023-06-22T09:28:14;13.43;;;12.33;;
15061;SDS011;7630;50.306;8.566;2023-06-22T09:32:15;14.27;;;13.20;;
15061;SDS011;7630;50.306;8.566;2023-06-22T09:36:16;12.80;;;11.77;;
15061;SDS011;7630;50.306;8.566;2023-06-22T09:40:17;13.20;;;12.07;;
15061;SDS011;7630;50.306;8.566;2023-06-22T09:44:19;12.83;;;11.93;;
15061;SDS011;7630;50.306;8.566;2023-06-22T09:48:20;13.77;;;12.57;;
15061;SDS011;7630;50.306;8.566;2023-06-22T09:52:21;13.40;;;12.37;;
15061;SDS011;7630;50.306;8.566;2023-06-22T09:56:24;13.60;;;12.53;;
15061;SDS011;7630;50.306;8.566;2023-06-22T10:00:29;13.10;;;12.10;;
15061;SDS011;7630;50.306;8.566;2023-06-22T10:04:31;12.47;;;11.57;;
15061;SDS011;7630;50.306;8.566;2023-06-22T10:08:33;13.00;;;12.10;;
15061;SDS011;7630;50.306;8.566;2023-06-22T10:12:34;13.90;;;12.60;;
15061;SDS011;7630;50.306;8.566;2023-06-22T10:16:36;13.80;;;12.73;;
15061;SDS011;7630;50.306;8.566;2023-06-22T10:20:37;15.47;;;14.17;;
15061;SDS011;7630;50.306;8.566;2023-06-22T10:24:38;13.70;;;12.57;;
15061;SDS011;7630;50.306;8.566;2023-06-22T10:28:41;14.00;;;12.93;;
15061;SDS011;7630;50.306;8.566;2023-06-22T10:32:42;14.00;;;12.87;;
15061;SDS011;7630;50.306;8.566;2023-06-22T10:36:44;13.73;;;12.53;;
15061;SDS011;7630;50.306;8.566;2023-06-22T10:44:56;14.17;;;13.17;;
15061;SDS011;7630;50.306;8.566;2023-06-22T10:48:57;13.53;;;11.80;;
15061;SDS011;7630;50.306;8.566;2023-06-22T10:52:59;14.03;;;12.43;;
15061;SDS011;7630;50.306;8.566;2023-06-22T10:57:01;13.77;;;12.77;;
15061;SDS011;7630;50.306;8.566;2023-06-22T11:01:03;11.73;;;11.03;;
15061;SDS011;7630;50.306;8.566;2023-06-22T11:05:04;12.30;;;11.13;;
15061;SDS011;7630;50.306;8.566;2023-06-22T11:09:05;11.67;;;10.70;;
15061;SDS011;7630;50.306;8.566;2023-06-22T11:13:08;11.83;;;11.03;;
15061;SDS011;7630;50.306;8.566;2023-06-22T11:17:10;11.03;;;10.03;;
15061;SDS011;7630;50.306;8.566;2023-06-22T11:21:12;9.93;;;8.97;;
15061;SDS011;7630;50.306;8.566;2023-06-22T11:25:13;8.47;;;7.80;;
15061;SDS011;7630;50.306;8.566;2023-06-22T11:29:14;8.90;;;8.17;;
15061;SDS011;7630;50.306;8.566;2023-06-22T11:33:17;10.63;;;9.73;;
15061;SDS011;7630;50.306;8.566;2023-06-22T11:37:18;9.57;;;8.70;;
15061;SDS011;7630;50.306;8.566;2023-06-22T11:41:19;12.03;;;9.00;;
15061;SDS011;7630;50.306;8.566;2023-06-22T11:45:20;11.43;;;8.40;;
15061;SDS011;7630;50.306;8.566;2023-06-22T11:49:21;11.43;;;9.57;;
15061;SDS011;7630;50.306;8.566;2023-06-22T11:53:23;10.03;;;9.07;;
15061;SDS011;7630;50.306;8.566;2023-06-22T11:57:26;9.73;;;8.97;;
15061;SDS011;7630;50.306;8.566;2023-06-22T12:01:27;10.23;;;9.30;;
15061;SDS011;7630;50.306;8.566;2023-06-22T12:05:28;10.33;;;9.43;;
15061;SDS011;7630;50.306;8.566;2023-06-22T12:09:30;10.00;;;9.07;;
15061;SDS011;7630;50.306;8.566;2023-06-22T12:13:31;12.63;;;9.30;;
15061;SDS011;7630;50.306;8.566;2023-06-22T12:17:32;10.30;;;9.60;;
15061;SDS011;7630;50.306;8.566;2023-06-22T12:21:34;10.23;;;9.23;;
15061;SDS011;7630;50.306;8.566;2023-06-22T12:25:35;11.77;;;10.67;;
15061;SDS011;7630;50.306;8.566;2023-06-22T12:29:37;11.03;;;9.97;;
15061;SDS011;7630;50.306;8.566;2023-06-22T12:33:38;11.83;;;10.67;;
15061;SDS011;7630;50.306;8.566;2023-06-22T12:37:43;11.30;;;10.40;;
15061;SDS011;7630;50.306;8.566;2023-06-22T12:41:43;12.77;;;11.57;;
15061;SDS011;7630;50.306;8.566;2023-06-22T12:45:44;11.80;;;10.67;;
15061;SDS011;7630;50.306;8.566;2023-06-22T12:49:45;11.80;;;10.37;;
15061;SDS011;7630;50.306;8.566;2023-06-22T12:53:46;12.87;;;9.83;;
15061;SDS011;7630;50.306;8.566;2023-06-22T12:57:48;11.53;;;10.37;;
15061;SDS011;7630;50.306;8.566;2023-06-22T13:01:49;13.08;;;11.30;;
15061;SDS011;7630;50.306;8.566;2023-06-22T13:05:50;11.57;;;10.55;;
15061;SDS011;7630;50.306;8.566;2023-06-22T13:09:51;12.27;;;11.17;;
15061;SDS011;7630;50.306;8.566;2023-06-22T13:13:53;11.60;;;10.58;;
15061;SDS011;7630;50.306;8.566;2023-06-22T13:17:55;10.40;;;9.43;;
15061;SDS011;7630;50.306;8.566;2023-06-22T13:21:56;11.57;;;9.95;;
15061;SDS011;7630;50.306;8.566;2023-06-22T13:25:57;12.75;;;11.40;;
15061;SDS011;7630;50.306;8.566;2023-06-22T13:29:59;12.43;;;11.30;;
15061;SDS011;7630;50.306;8.566;2023-06-22T13:34:00;13.50;;;11.45;;
15061;SDS011;7630;50.306;8.566;2023-06-22T13:38:01;13.60;;;11.48;;
15061;SDS011;7630;50.306;8.566;2023-06-22T13:42:02;13.27;;;12.00;;
15061;SDS011;7630;50.306;8.566;2023-06-22T13:46:04;13.43;;;12.43;;
15061;SDS011;7630;50.306;8.566;2023-06-22T13:50:05;12.13;;;11.03;;
15061;SDS011;7630;50.306;8.566;2023-06-22T13:54:07;13.10;;;11.73;;
15061;SDS011;7630;50.306;8.566;2023-06-22T13:58:10;14.73;;;12.20;;
15061;SDS011;7630;50.306;8.566;2023-06-22T14:02:11;14.20;;;10.90;;
15061;SDS011;7630;50.306;8.566;2023-06-22T14:06:12;12.45;;;10.25;;
15061;SDS011;7630;50.306;8.566;2023-06-22T14:10:13;11.33;;;10.27;;
15061;SDS011;7630;50.306;8.566;2023-06-22T14:14:14;14.37;;;12.03;;
15061;SDS011;7630;50.306;8.566;2023-06-22T14:18:15;13.83;;;10.83;;
15061;SDS011;7630;50.306;8.566;2023-06-22T14:22:16;12.63;;;10.03;;
15061;SDS011;7630;50.306;8.566;2023-06-22T14:26:18;13.63;;;12.37;;
15061;SDS011;7630;50.306;8.566;2023-06-22T14:30:19;13.17;;;11.90;;
15061;SDS011;7630;50.306;8.566;2023-06-22T14:34:20;14.27;;;12.73;;
15061;SDS011;7630;50.306;8.566;2023-06-22T14:38:22;17.00;;;12.10;;
15061;SDS011;7630;50.306;8.566;2023-06-22T14:42:23;13.13;;;11.97;;
15061;SDS011;7630;50.306;8.566;2023-06-22T14:46:24;15.23;;;11.83;;
15061;SDS011;7630;50.306;8.566;2023-06-22T14:50:25;15.73;;;14.00;;
15061;SDS011;7630;50.306;8.566;2023-06-22T14:54:26;14.07;;;11.93;;
15061;SDS011;7630;50.306;8.566;2023-06-22T14:58:28;13.50;;;12.40;;
15061;SDS011;7630;50.306;8.566;2023-06-22T15:02:30;13.97;;;12.63;;
15061;SDS011;7630;50.306;8.566;2023-06-22T15:06:32;14.40;;;12.93;;
15061;SDS011;7630;50.306;8.566;2023-06-22T15:10:33;16.30;;;12.10;;
15061;SDS011;7630;50.306;8.566;2023-06-22T15:14:34;13.90;;;12.07;;
15061;SDS011;7630;50.306;8.566;2023-06-22T15:18:36;14.07;;;12.00;;
15061;SDS011;7630;50.306;8.566;2023-06-22T15:22:37;15.33;;;11.67;;
15061;SDS011;7630;50.306;8.566;2023-06-22T15:26:38;11.90;;;10.63;;
15061;SDS011;7630;50.306;8.566;2023-06-22T15:30:39;12.70;;;9.23;;
15061;SDS011;7630;50.306;8.566;2023-06-22T15:34:40;13.30;;;9.43;;
15061;SDS011;7630;50.306;8.566;2023-06-22T15:38:41;18.60;;;10.93;;
15061;SDS011;7630;50.306;8.566;2023-06-22T15:42:44;34.47;;;11.67;;
15061;SDS011;7630;50.306;8.566;2023-06-22T15:46:47;24.60;;;9.67;;
15061;SDS011;7630;50.306;8.566;2023-06-22T15:50:49;27.80;;;12.77;;
15061;SDS011;7630;50.306;8.566;2023-06-22T15:54:50;32.33;;;13.93;;
15061;SDS011;7630;50.306;8.566;2023-06-22T15:58:54;22.87;;;12.57;;
15061;SDS011;7630;50.306;8.566;2023-06-22T16:02:57;21.20;;;12.47;;
15061;SDS011;7630;50.306;8.566;2023-06-22T16:06:58;20.07;;;10.83;;
15061;SDS011;7630;50.306;8.566;2023-06-22T16:11:00;22.63;;;13.80;;
15061;SDS011;7630;50.306;8.566;2023-06-22T16:15:05;21.87;;;10.97;;
15061;SDS011;7630;50.306;8.566;2023-06-22T16:19:04;19.47;;;11.57;;
15061;SDS011;7630;50.306;8.566;2023-06-22T16:23:05;36.30;;;15.43;;
15061;SDS011;7630;50.306;8.566;2023-06-22T16:27:06;54.60;;;16.03;;
15061;SDS011;7630;50.306;8.566;2023-06-22T16:31:07;19.93;;;11.50;;
15061;SDS011;7630;50.306;8.566;2023-06-22T16:35:08;31.50;;;16.33;;
15061;SDS011;7630;50.306;8.566;2023-06-22T16:39:10;15.30;;;13.20;;
15061;SDS011;7630;50.306;8.566;2023-06-22T16:43:11;18.23;;;14.53;;
15061;SDS011;7630;50.306;8.566;2023-06-22T16:47:12;18.13;;;15.77;;
15061;SDS011;7630;50.306;8.566;2023-06-22T16:51:13;17.07;;;12.30;;
15061;SDS011;7630;50.306;8.566;2023-06-22T16:55:14;19.73;;;10.77;;
15061;SDS011;7630;50.306;8.566;2023-06-22T16:59:15;15.53;;;10.93;;
15061;SDS011;7630;50.306;8.566;2023-06-22T17:03:29;12.23;;;10.23;;
15061;SDS011;7630;50.306;8.566;2023-06-22T17:07:32;12.37;;;9.33;;
15061;SDS011;7630;50.306;8.566;2023-06-22T17:11:36;13.03;;;10.07;;
15061;SDS011;7630;50.306;8.566;2023-06-22T17:15:38;18.10;;;12.57;;
15061;SDS011;7630;50.306;8.566;2023-06-22T17:19:41;19.60;;;13.17;;
15061;SDS011;7630;50.306;8.566;2023-06-22T17:23:42;10.63;;;9.53;;
15061;SDS011;7630;50.306;8.566;2023-06-22T17:27:46;23.70;;;11.23;;
15061;SDS011;7630;50.306;8.566;2023-06-22T17:31:49;14.53;;;10.40;;
15061;SDS011;7630;50.306;8.566;2023-06-22T17:35:54;13.03;;;11.17;;
15061;SDS011;7630;50.306;8.566;2023-06-22T17:39:56;22.50;;;12.27;;
15061;SDS011;7630;50.306;8.566;2023-06-22T17:43:57;14.77;;;12.37;;
15061;SDS011;7630;50.306;8.566;2023-06-22T17:47:58;14.70;;;12.00;;
15061;SDS011;7630;50.306;8.566;2023-06-22T17:51:59;13.03;;;11.60;;
15061;SDS011;7630;50.306;8.566;2023-06-22T17:56:01;18.60;;;11.50;;
15061;SDS011;7630;50.306;8.566;2023-06-22T18:00:04;17.47;;;11.63;;
15061;SDS011;7630;50.306;8.566;2023-06-22T18:04:08;12.13;;;10.67;;
15061;SDS011;7630;50.306;8.566;2023-06-22T18:08:11;13.13;;;10.53;;
15061;SDS011;7630;50.306;8.566;2023-06-22T18:12:14;12.47;;;9.97;;
15061;SDS011;7630;50.306;8.566;2023-06-22T18:16:16;13.50;;;11.13;;
15061;SDS011;7630;50.306;8.566;2023-06-22T18:20:18;15.77;;;11.63;;
15061;SDS011;7630;50.306;8.566;2023-06-22T18:24:22;18.33;;;11.67;;
15061;SDS011;7630;50.306;8.566;2023-06-22T18:28:24;11.07;;;9.87;;
15061;SDS011;7630;50.306;8.566;2023-06-22T18:32:27;14.30;;;11.70;;
15061;SDS011;7630;50.306;8.566;2023-06-22T18:36:29;11.93;;;10.83;;
15061;SDS011;7630;50.306;8.566;2023-06-22T18:40:52;12.70;;;10.77;;
15061;SDS011;7630;50.306;8.566;2023-06-22T18:44:53;12.50;;;11.10;;
15061;SDS011;7630;50.306;8.566;2023-06-22T18:49:11;13.57;;;11.03;;
15061;SDS011;7630;50.306;8.566;2023-06-22T18:53:04;17.63;;;11.97;;
15061;SDS011;7630;50.306;8.566;2023-06-22T18:57:12;13.93;;;11.07;;
15061;SDS011;7630;50.306;8.566;2023-06-22T19:01:22;14.27;;;12.60;;
15061;SDS011;7630;50.306;8.566;2023-06-22T19:09:42;20.27;;;11.10;;
15061;SDS011;7630;50.306;8.566;2023-06-22T19:13:47;22.07;;;13.40;;
15061;SDS011;7630;50.306;8.566;2023-06-22T19:17:51;13.37;;;12.03;;
15061;SDS011;7630;50.306;8.566;2023-06-22T19:22:00;12.73;;;11.40;;
15061;SDS011;7630;50.306;8.566;2023-06-22T19:26:01;13.40;;;9.13;;
15061;SDS011;7630;50.306;8.566;2023-06-22T19:30:03;14.93;;;9.77;;
15061;SDS011;7630;50.306;8.566;2023-06-22T19:34:08;14.07;;;9.07;;
15061;SDS011;7630;50.306;8.566;2023-06-22T19:38:11;10.93;;;9.10;;
15061;SDS011;7630;50.306;8.566;2023-06-22T19:42:13;14.20;;;11.47;;
15061;SDS011;7630;50.306;8.566;2023-06-22T19:46:15;10.73;;;9.73;;
15061;SDS011;7630;50.306;8.566;2023-06-22T19:50:17;12.13;;;10.93;;
15061;SDS011;7630;50.306;8.566;2023-06-22T19:54:18;15.47;;;11.90;;
15061;SDS011;7630;50.306;8.566;2023-06-22T19:58:20;19.47;;;12.47;;
15061;SDS011;7630;50.306;8.566;2023-06-22T20:02:25;15.07;;;12.73;;
15061;SDS011;7630;50.306;8.566;2023-06-22T20:06:27;12.93;;;11.33;;
15061;SDS011;7630;50.306;8.566;2023-06-22T20:10:33;21.40;;;11.90;;
15061;SDS011;7630;50.306;8.566;2023-06-22T20:14:35;10.20;;;9.03;;
15061;SDS011;7630;50.306;8.566;2023-06-22T20:18:36;19.00;;;11.23;;
15061;SDS011;7630;50.306;8.566;2023-06-22T20:22:41;14.13;;;12.57;;
15061;SDS011;7630;50.306;8.566;2023-06-22T20:26:43;16.40;;;11.50;;
15061;SDS011;7630;50.306;8.566;2023-06-22T20:35:07;11.00;;;7.60;;
15061;SDS011;7630;50.306;8.566;2023-06-22T20:39:08;10.00;;;7.27;;
15061;SDS011;7630;50.306;8.566;2023-06-22T20:43:12;7.63;;;6.83;;
15061;SDS011;7630;50.306;8.566;2023-06-22T20:47:14;7.70;;;7.00;;
15061;SDS011;7630;50.306;8.566;2023-06-22T20:51:15;9.13;;;6.43;;
15061;SDS011;7630;50.306;8.566;2023-06-22T20:55:18;8.47;;;4.40;;
15061;SDS011;7630;50.306;8.566;2023-06-22T20:59:19;8.13;;;4.70;;
15061;SDS011;7630;50.306;8.566;2023-06-22T21:03:20;5.07;;;3.97;;
15061;SDS011;7630;50.306;8.566;2023-06-22T21:07:22;5.67;;;4.40;;
15061;SDS011;7630;50.306;8.566;2023-06-22T21:11:23;4.60;;;3.73;;
15061;SDS011;7630;50.306;8.566;2023-06-22T21:15:24;4.70;;;3.43;;
15061;SDS011;7630;50.306;8.566;2023-06-22T21:19:26;5.27;;;4.70;;
15061;SDS011;7630;50.306;8.566;2023-06-22T21:23:27;4.80;;;4.33;;
15061;SDS011;7630;50.306;8.566;2023-06-22T21:27:28;3.53;;;3.23;;
15061;SDS011;7630;50.306;8.566;2023-06-22T21:31:29;6.23;;;4.13;;
15061;SDS011;7630;50.306;8.566;2023-06-22T21:35:33;4.00;;;3.70;;
15061;SDS011;7630;50.306;8.566;2023-06-22T21:39:35;3.47;;;2.70;;
15061;SDS011;7630;50.306;8.566;2023-06-22T21:43:36;2.83;;;2.63;;
15061;SDS011;7630;50.306;8.566;2023-06-22T21:47:37;6.80;;;3.10;;
15061;SDS011;7630;50.306;8.566;2023-06-22T21:51:38;4.73;;;3.53;;
15061;SDS011;7630;50.306;8.566;2023-06-22T21:55:39;9.40;;;3.97;;
15061;SDS011;7630;50.306;8.566;2023-06-22T21:59:41;2.83;;;2.63;;
15061;SDS011;7630;50.306;8.566;2023-06-22T22:03:42;2.93;;;2.83;;
15061;SDS011;7630;50.306;8.566;2023-06-22T22:07:43;3.40;;;3.10;;
15061;SDS011;7630;50.306;8.566;2023-06-22T22:11:45;4.73;;;2.77;;
15061;SDS011;7630;50.306;8.566;2023-06-22T22:15:47;2.97;;;2.77;;
15061;SDS011;7630;50.306;8.566;2023-06-22T22:19:52;4.40;;;3.00;;
15061;SDS011;7630;50.306;8.566;2023-06-22T22:23:53;4.67;;;2.73;;
15061;SDS011;7630;50.306;8.566;2023-06-22T22:27:55;3.83;;;3.63;;
15061;SDS011;7630;50.306;8.566;2023-06-22T22:31:56;13.23;;;5.43;;
15061;SDS011;7630;50.306;8.566;2023-06-22T22:35:57;4.47;;;4.07;;
15061;SDS011;7630;50.306;8.566;2023-06-22T22:40:00;5.20;;;4.53;;
15061;SDS011;7630;50.306;8.566;2023-06-22T22:44:01;6.67;;;6.17;;
15061;SDS011;7630;50.306;8.566;2023-06-22T22:48:02;9.63;;;7.23;;
15061;SDS011;7630;50.306;8.566;2023-06-22T22:52:04;8.90;;;8.27;;
15061;SDS011;7630;50.306;8.566;2023-06-22T22:56:06;9.43;;;8.50;;
15061;SDS011;7630;50.306;8.566;2023-06-22T23:00:08;10.00;;;9.13;;
15061;SDS011;7630;50.306;8.566;2023-06-22T23:04:12;8.23;;;7.73;;
15061;SDS011;7630;50.306;8.566;2023-06-22T23:08:15;8.40;;;7.80;;
15061;SDS011;7630;50.306;8.566;2023-06-22T23:12:16;7.70;;;7.03;;
15061;SDS011;7630;50.306;8.566;2023-06-22T23:16:17;7.63;;;7.03;;
15061;SDS011;7630;50.306;8.566;2023-06-22T23:20:18;8.57;;;7.87;;
15061;SDS011;7630;50.306;8.566;2023-06-22T23:24:20;7.87;;;7.17;;
15061;SDS011;7630;50.306;8.566;2023-06-22T23:28:21;8.10;;;7.50;;
15061;SDS011;7630;50.306;8.566;2023-06-22T23:32:24;8.00;;;7.17;;
15061;SDS011;7630;50.306;8.566;2023-06-22T23:36:26;8.33;;;7.73;;
15061;SDS011;7630;50.306;8.566;2023-06-22T23:40:27;6.77;;;6.37;;
15061;SDS011;7630;50.306;8.566;2023-06-22T23:44:28;8.37;;;7.77;;
15061;SDS011;7630;50.306;8.566;2023-06-22T23:48:29;11.87;;;10.97;;
15061;SDS011;7630;50.306;8.566;2023-06-22T23:52:31;14.53;;;13.33;;
15061;SDS011;7630;50.306;8.566;2023-06-22T23:56:32;15.77;;;14.27;;
